createdAt,value
2022-12-25T00:00:20.971Z,25.23
2022-12-25T00:01:32.816Z,26.00
2022-12-25T00:02:44.418Z,45.10
2022-12-25T00:03:56.617Z,28.60
2022-12-25T00:05:08.530Z,28.73
2022-12-25T00:06:20.065Z,39.10
2022-12-25T00:07:31.922Z,30.25
2022-12-25T00:08:43.326Z,30.70
2022-12-25T00:09:54.758Z,29.90
2022-12-25T00:11:07.916Z,23.05
2022-12-25T00:12:21.013Z,30.98
2022-12-25T00:13:32.652Z,32.85
2022-12-25T00:14:44.119Z,35.85
2022-12-25T00:15:55.667Z,31.67
2022-12-25T00:17:07.168Z,22.13
2022-12-25T00:18:18.664Z,26.40
2022-12-25T00:19:31.370Z,29.75
2022-12-25T00:20:42.854Z,30.40
2022-12-25T00:21:54.309Z,26.73
2022-12-25T00:23:05.736Z,22.58
2022-12-25T00:24:17.135Z,21.92
2022-12-25T00:25:28.606Z,24.83
2022-12-25T00:26:40.197Z,21.63
2022-12-25T00:27:51.714Z,20.70
2022-12-25T00:29:03.242Z,18.27
2022-12-25T00:30:14.767Z,16.83
2022-12-25T00:31:26.867Z,16.80
2022-12-25T00:32:38.384Z,24.38
2022-12-25T00:33:50.507Z,20.02
2022-12-25T00:35:02.128Z,22.77
2022-12-25T00:36:15.622Z,28.33
2022-12-25T00:37:27.066Z,18.92
2022-12-25T00:38:39.441Z,21.88
2022-12-25T00:39:50.976Z,26.00
2022-12-25T00:41:06.652Z,23.60
2022-12-25T00:42:20.804Z,22.75
2022-12-25T00:43:32.289Z,29.63
2022-12-25T00:44:44.018Z,26.58
2022-12-25T00:45:59.398Z,23.67
2022-12-25T00:47:11.045Z,30.48
2022-12-25T00:48:22.619Z,34.35
2022-12-25T00:49:34.087Z,32.25
2022-12-25T00:50:45.531Z,22.90
2022-12-25T00:51:57.003Z,29.60
2022-12-25T00:53:08.455Z,17.65
2022-12-25T00:54:20.211Z,20.77
2022-12-25T00:55:31.698Z,19.02
2022-12-25T00:56:43.191Z,15.20
2022-12-25T00:57:54.715Z,18.67
2022-12-25T00:59:06.203Z,13.43
2022-12-25T01:00:17.757Z,11.77
2022-12-25T01:01:29.394Z,15.38
2022-12-25T01:02:41.073Z,13.13
2022-12-25T01:03:52.602Z,12.68
2022-12-25T01:05:04.886Z,18.02
2022-12-25T01:06:16.334Z,18.10
2022-12-25T01:07:27.952Z,15.10
2022-12-25T01:09:00.648Z,15.95
2022-12-25T01:10:24.343Z,12.73
2022-12-25T01:11:35.894Z,18.50
2022-12-25T01:12:47.389Z,13.52
2022-12-25T01:13:59.011Z,16.85
2022-12-25T01:15:11.974Z,22.15
2022-12-25T01:16:23.463Z,19.95
2022-12-25T01:17:35.032Z,21.15
2022-12-25T01:18:46.752Z,17.60
2022-12-25T01:19:58.195Z,17.85
2022-12-25T01:21:11.892Z,15.75
2022-12-25T01:22:23.320Z,17.83
2022-12-25T01:23:34.978Z,18.10
2022-12-25T01:24:46.464Z,16.90
2022-12-25T01:26:02.923Z,15.82
2022-12-25T01:27:14.379Z,17.20
2022-12-25T01:28:25.840Z,12.88
2022-12-25T01:29:37.491Z,16.17
2022-12-25T01:30:49.449Z,17.35
2022-12-25T01:32:01.026Z,18.10
2022-12-25T01:33:12.472Z,21.70
2022-12-25T01:34:23.937Z,20.33
2022-12-25T01:35:38.795Z,19.25
2022-12-25T01:36:50.232Z,19.02
2022-12-25T01:38:01.661Z,18.38
2022-12-25T01:39:13.108Z,36.38
2022-12-25T01:40:24.634Z,28.83
2022-12-25T01:41:36.111Z,31.42
2022-12-25T01:42:47.567Z,28.48
2022-12-25T01:44:28.135Z,29.48
2022-12-25T01:45:44.583Z,32.22
2022-12-25T01:46:56.083Z,26.85
2022-12-25T01:48:11.163Z,27.80
2022-12-25T01:49:24.823Z,29.27
2022-12-25T01:50:38.476Z,27.38
2022-12-25T01:51:52.692Z,24.83
2022-12-25T01:53:04.416Z,25.67
2022-12-25T01:54:17.929Z,30.70
2022-12-25T01:55:29.508Z,34.97
2022-12-25T01:56:42.208Z,32.28
2022-12-25T01:57:53.786Z,37.05
2022-12-25T01:59:06.422Z,32.22
2022-12-25T02:00:17.944Z,35.55
2022-12-25T02:01:29.684Z,25.63
2022-12-25T02:02:41.505Z,29.08
2022-12-25T02:03:55.700Z,22.92
2022-12-25T02:05:10.048Z,21.10
2022-12-25T02:06:21.754Z,34.22
2022-12-25T02:07:34.823Z,32.15
2022-12-25T02:08:46.272Z,21.55
2022-12-25T02:09:57.763Z,25.33
2022-12-25T02:11:29.265Z,21.05
2022-12-25T02:12:41.261Z,25.05
2022-12-25T02:13:52.696Z,23.63
2022-12-25T02:15:24.378Z,23.00
2022-12-25T02:16:57.625Z,20.92
2022-12-25T02:18:20.407Z,17.70
2022-12-25T02:19:32.509Z,22.90
2022-12-25T02:20:43.933Z,19.42
2022-12-25T02:22:02.058Z,20.90
2022-12-25T02:23:13.528Z,23.58
2022-12-25T02:24:37.349Z,23.48
2022-12-25T02:26:07.348Z,16.88
2022-12-25T02:27:42.171Z,19.45
2022-12-25T02:28:53.633Z,18.60
2022-12-25T02:30:10.021Z,16.63
2022-12-25T02:31:30.357Z,17.38
2022-12-25T02:32:47.642Z,14.05
2022-12-25T02:34:05.251Z,19.05
2022-12-25T02:35:25.606Z,17.35
2022-12-25T02:36:46.300Z,17.52
2022-12-25T02:38:04.841Z,15.73
2022-12-25T02:39:52.101Z,19.42
2022-12-25T02:41:09.358Z,18.90
2022-12-25T02:42:59.553Z,28.73
2022-12-25T02:44:33.461Z,19.60
2022-12-25T02:46:17.476Z,15.80
2022-12-25T02:47:47.812Z,13.40
2022-12-25T02:49:19.466Z,14.35
2022-12-25T02:50:49.738Z,16.95
2022-12-25T02:52:22.341Z,16.35
2022-12-25T02:53:53.257Z,13.43
2022-12-25T02:55:31.739Z,15.40
2022-12-25T02:57:02.892Z,13.07
2022-12-25T02:58:34.967Z,19.75
2022-12-25T03:00:07.307Z,24.38
2022-12-25T03:01:38.787Z,13.88
2022-12-25T03:03:09.524Z,18.50
2022-12-25T03:04:54.079Z,28.38
2022-12-25T03:06:24.726Z,24.88
2022-12-25T03:07:38.797Z,33.90
2022-12-25T03:08:52.205Z,31.42
2022-12-25T03:10:25.310Z,29.90
2022-12-25T03:11:36.823Z,32.45
2022-12-25T03:13:02.107Z,33.30
2022-12-25T03:14:32.219Z,34.00
2022-12-25T03:16:02.685Z,28.90
2022-12-25T03:17:14.338Z,37.97
2022-12-25T03:18:27.159Z,40.28
2022-12-25T03:19:57.442Z,37.47
2022-12-25T03:21:27.353Z,38.47
2022-12-25T03:22:57.866Z,43.55
2022-12-25T03:24:27.938Z,40.25
2022-12-25T03:25:57.898Z,35.78
2022-12-25T03:27:09.333Z,37.28
2022-12-25T03:28:20.749Z,46.95
2022-12-25T03:29:51.917Z,53.40
2022-12-25T03:31:17.222Z,37.13
2022-12-25T03:32:41.608Z,49.03
2022-12-25T03:34:18.010Z,47.20
2022-12-25T03:35:44.262Z,41.58
2022-12-25T03:37:37.017Z,45.40
2022-12-25T03:38:51.387Z,41.95
2022-12-25T03:40:35.737Z,40.20
2022-12-25T03:42:08.822Z,44.50
2022-12-25T03:43:49.747Z,36.72
2022-12-25T03:45:38.803Z,35.95
2022-12-25T03:47:26.419Z,47.33
2022-12-25T03:48:59.054Z,35.83
2022-12-25T03:50:45.995Z,43.83
2022-12-25T03:52:17.506Z,45.97
2022-12-25T03:53:59.051Z,62.03
2022-12-25T03:55:30.885Z,45.35
2022-12-25T03:57:02.171Z,46.80
2022-12-25T03:58:36.287Z,48.50
2022-12-25T04:00:06.228Z,47.67
2022-12-25T04:01:36.541Z,63.88
2022-12-25T04:03:06.747Z,67.57
2022-12-25T04:04:36.732Z,50.13
2022-12-25T04:06:06.530Z,42.05
2022-12-25T04:07:36.495Z,53.83
2022-12-25T04:09:06.493Z,35.42
2022-12-25T04:10:36.431Z,37.97
2022-12-25T04:12:06.513Z,47.45
2022-12-25T04:13:36.326Z,42.63
2022-12-25T04:15:06.265Z,34.08
2022-12-25T04:16:36.233Z,37.17
2022-12-25T04:18:06.388Z,42.58
2022-12-25T04:19:36.267Z,34.55
2022-12-25T04:21:06.048Z,51.83
2022-12-25T04:22:35.795Z,63.25
2022-12-25T04:24:05.782Z,56.78
2022-12-25T04:25:35.995Z,44.08
2022-12-25T04:27:05.830Z,38.17
2022-12-25T04:28:35.654Z,41.30
2022-12-25T04:30:05.546Z,31.63
2022-12-25T04:31:35.538Z,25.80
2022-12-25T04:33:07.277Z,33.40
2022-12-25T04:34:37.208Z,29.40
2022-12-25T04:36:07.154Z,25.20
2022-12-25T04:37:18.624Z,29.42
2022-12-25T04:38:30.087Z,27.75
2022-12-25T04:39:41.579Z,25.23
2022-12-25T04:40:53.041Z,35.15
2022-12-25T04:42:04.524Z,36.40
2022-12-25T04:43:15.987Z,25.92
2022-12-25T04:44:27.474Z,28.25
2022-12-25T04:45:38.917Z,27.80
2022-12-25T04:46:50.380Z,20.10
2022-12-25T04:48:02.005Z,24.27
2022-12-25T04:49:13.515Z,21.63
2022-12-25T04:50:24.994Z,19.48
2022-12-25T04:51:36.812Z,18.55
2022-12-25T04:52:48.278Z,17.90
2022-12-25T04:53:59.713Z,17.80
2022-12-25T04:55:11.664Z,15.13
2022-12-25T04:56:23.189Z,14.25
2022-12-25T04:57:34.937Z,10.40
2022-12-25T04:58:46.787Z,16.92
2022-12-25T04:59:58.253Z,16.20
2022-12-25T05:01:09.760Z,17.08
2022-12-25T05:02:21.314Z,17.63
2022-12-25T05:03:33.363Z,17.42
2022-12-25T05:04:44.833Z,17.75
2022-12-25T05:05:56.391Z,25.08
2022-12-25T05:07:07.807Z,20.33
2022-12-25T05:08:19.278Z,16.42
2022-12-25T05:09:30.732Z,24.15
2022-12-25T05:10:42.232Z,16.92
2022-12-25T05:11:53.633Z,25.08
2022-12-25T05:13:05.144Z,26.42
2022-12-25T05:14:16.601Z,39.83
2022-12-25T05:15:28.684Z,32.05
2022-12-25T05:16:40.150Z,38.58
2022-12-25T05:17:51.665Z,36.00
2022-12-25T05:19:03.099Z,37.35
2022-12-25T05:20:14.753Z,47.05
2022-12-25T05:21:26.235Z,41.53
2022-12-25T05:22:37.632Z,31.30
2022-12-25T05:23:50.252Z,42.47
2022-12-25T05:25:01.709Z,33.03
2022-12-25T05:26:13.149Z,32.25
2022-12-25T05:27:24.765Z,37.67
2022-12-25T05:28:36.343Z,34.28
2022-12-25T05:29:47.834Z,34.22
2022-12-25T05:30:59.426Z,45.10
2022-12-25T05:32:10.945Z,30.98
2022-12-25T05:33:22.419Z,37.97
2022-12-25T05:34:33.827Z,40.63
2022-12-25T05:35:45.278Z,38.85
2022-12-25T05:36:57.151Z,44.83
2022-12-25T05:38:08.768Z,34.55
2022-12-25T05:39:20.253Z,68.43
2022-12-25T05:40:31.907Z,49.72
2022-12-25T05:41:43.335Z,57.58
2022-12-25T05:42:54.797Z,41.25
2022-12-25T05:44:06.280Z,44.25
2022-12-25T05:45:17.739Z,42.58
2022-12-25T05:46:29.234Z,49.92
2022-12-25T05:47:40.781Z,37.10
2022-12-25T05:48:52.198Z,46.38
2022-12-25T05:50:04.054Z,33.63
2022-12-25T05:51:15.824Z,36.95
2022-12-25T05:52:30.782Z,35.83
2022-12-25T05:53:42.842Z,69.28
2022-12-25T05:54:54.267Z,102.05
2022-12-25T05:56:06.973Z,71.50
2022-12-25T05:57:18.473Z,48.88
2022-12-25T05:58:30.345Z,37.30
2022-12-25T05:59:41.772Z,67.60
2022-12-25T06:00:53.243Z,79.13
2022-12-25T06:02:04.894Z,97.20
2022-12-25T06:03:16.610Z,74.35
2022-12-25T06:04:28.125Z,44.40
2022-12-25T06:05:39.927Z,35.78
2022-12-25T06:06:51.412Z,49.60
2022-12-25T06:08:02.906Z,36.40
2022-12-25T06:09:14.531Z,37.30
2022-12-25T06:10:26.030Z,37.95
2022-12-25T06:11:37.492Z,32.17
2022-12-25T06:12:49.227Z,36.25
2022-12-25T06:14:01.241Z,35.55
2022-12-25T06:15:12.688Z,45.05
2022-12-25T06:16:24.190Z,47.80
2022-12-25T06:17:35.633Z,106.63
2022-12-25T06:18:48.707Z,92.05
2022-12-25T06:20:00.209Z,50.00
2022-12-25T06:21:13.180Z,38.38
2022-12-25T06:22:28.339Z,28.27
2022-12-25T06:23:40.353Z,31.90
2022-12-25T06:24:52.006Z,39.47
2022-12-25T06:26:10.736Z,112.68
2022-12-25T06:27:22.157Z,98.43
2022-12-25T06:28:33.614Z,53.38
2022-12-25T06:29:45.081Z,74.10
2022-12-25T06:30:56.657Z,34.72
2022-12-25T06:32:08.161Z,52.22
2022-12-25T06:33:19.704Z,54.47
2022-12-25T06:34:31.249Z,80.78
2022-12-25T06:35:42.870Z,83.40
2022-12-25T06:36:54.443Z,90.47
2022-12-25T06:38:06.081Z,91.72
2022-12-25T06:39:17.805Z,51.83
2022-12-25T06:40:29.265Z,53.58
2022-12-25T06:41:40.749Z,66.80
2022-12-25T06:42:52.272Z,54.47
2022-12-25T06:44:03.744Z,49.35
2022-12-25T06:45:15.233Z,45.65
2022-12-25T06:46:27.782Z,39.88
2022-12-25T06:47:39.427Z,36.92
2022-12-25T06:48:51.793Z,40.38
2022-12-25T06:50:03.468Z,100.13
2022-12-25T06:51:24.920Z,109.68
2022-12-25T06:52:36.361Z,73.90
2022-12-25T06:53:48.233Z,115.32
2022-12-25T06:55:00.077Z,139.77
2022-12-25T06:56:16.468Z,111.30
2022-12-25T06:57:28.074Z,74.55
2022-12-25T06:58:39.522Z,41.45
2022-12-25T06:59:55.160Z,40.15
2022-12-25T07:01:15.238Z,38.97
2022-12-25T07:02:27.447Z,40.50
2022-12-25T07:03:38.996Z,35.55
2022-12-25T07:04:51.152Z,33.45
2022-12-25T07:06:02.652Z,41.10
2022-12-25T07:07:14.298Z,38.75
2022-12-25T07:08:25.817Z,34.75
2022-12-25T07:09:39.092Z,35.45
2022-12-25T07:10:50.987Z,30.40
2022-12-25T07:12:06.591Z,47.97
2022-12-25T07:13:18.148Z,50.20
2022-12-25T07:14:29.793Z,46.47
2022-12-25T07:15:41.230Z,30.92
2022-12-25T07:16:52.780Z,34.67
2022-12-25T07:18:04.379Z,34.72
2022-12-25T07:19:16.156Z,28.23
2022-12-25T07:20:27.734Z,44.60
2022-12-25T07:21:39.236Z,52.97
2022-12-25T07:22:50.753Z,51.42
2022-12-25T07:24:02.304Z,59.72
2022-12-25T07:25:13.874Z,58.08
2022-12-25T07:26:25.336Z,83.20
2022-12-25T07:27:36.799Z,80.97
2022-12-25T07:28:48.253Z,72.65
2022-12-25T07:29:59.911Z,60.38
2022-12-25T07:31:12.823Z,80.10
2022-12-25T07:32:24.626Z,54.83
2022-12-25T07:33:36.353Z,42.25
2022-12-25T07:34:48.196Z,55.75
2022-12-25T07:35:59.859Z,81.20
2022-12-25T07:37:11.925Z,80.43
2022-12-25T07:38:23.488Z,90.35
2022-12-25T07:39:35.540Z,74.93
2022-12-25T07:40:47.663Z,59.50
2022-12-25T07:41:59.347Z,64.78
2022-12-25T07:43:11.261Z,95.57
2022-12-25T07:44:22.907Z,70.95
2022-12-25T07:45:34.507Z,62.70
2022-12-25T07:46:46.315Z,72.18
2022-12-25T07:48:02.740Z,82.65
2022-12-25T07:49:16.601Z,56.65
2022-12-25T07:50:28.070Z,62.88
2022-12-25T07:51:39.640Z,45.03
2022-12-25T07:52:51.192Z,36.88
2022-12-25T07:54:02.684Z,51.50
2022-12-25T07:55:14.368Z,43.20
2022-12-25T07:56:25.964Z,35.70
2022-12-25T07:57:37.569Z,49.28
2022-12-25T07:58:49.197Z,54.05
2022-12-25T08:00:00.640Z,47.10
2022-12-25T08:01:18.256Z,30.90
2022-12-25T08:02:30.239Z,39.67
2022-12-25T08:03:42.170Z,35.30
2022-12-25T08:04:56.686Z,36.05
2022-12-25T08:06:09.151Z,54.78
2022-12-25T08:07:20.648Z,47.08
2022-12-25T08:08:32.248Z,44.85
2022-12-25T08:09:43.684Z,45.15
2022-12-25T08:10:55.216Z,42.85
2022-12-25T08:12:06.890Z,38.92
2022-12-25T08:13:18.498Z,44.25
2022-12-25T08:14:29.987Z,57.97
2022-12-25T08:15:41.776Z,58.20
2022-12-25T08:16:53.274Z,72.10
2022-12-25T08:18:04.838Z,65.63
2022-12-25T08:19:16.365Z,66.47
2022-12-25T08:20:27.814Z,73.80
2022-12-25T08:21:39.349Z,61.58
2022-12-25T08:22:50.784Z,64.90
2022-12-25T08:24:03.230Z,61.05
2022-12-25T08:25:15.973Z,66.53
2022-12-25T08:26:27.448Z,64.68
2022-12-25T08:27:38.955Z,64.05
2022-12-25T08:28:50.467Z,65.68
2022-12-25T08:30:01.983Z,62.08
2022-12-25T08:31:13.623Z,50.97
2022-12-25T08:32:25.191Z,64.63
2022-12-25T08:33:37.138Z,60.00
2022-12-25T08:34:49.349Z,65.78
2022-12-25T08:36:04.935Z,64.93
2022-12-25T08:37:16.563Z,56.58
2022-12-25T08:38:28.170Z,63.25
2022-12-25T08:39:39.671Z,72.82
2022-12-25T08:40:51.348Z,73.20
2022-12-25T08:42:02.823Z,62.45
2022-12-25T08:43:14.250Z,70.47
2022-12-25T08:44:26.006Z,62.85
2022-12-25T08:45:37.463Z,77.20
2022-12-25T08:46:48.995Z,99.13
2022-12-25T08:48:01.437Z,88.45
2022-12-25T08:49:12.889Z,75.95
2022-12-25T08:50:24.787Z,76.65
2022-12-25T08:51:37.383Z,77.57
2022-12-25T08:52:48.866Z,80.00
2022-12-25T08:54:01.010Z,71.32
2022-12-25T08:55:12.727Z,79.78
2022-12-25T08:56:24.266Z,84.03
2022-12-25T08:57:35.738Z,86.60
2022-12-25T08:58:47.221Z,63.75
2022-12-25T08:59:58.689Z,74.20
2022-12-25T09:01:10.294Z,72.88
2022-12-25T09:02:21.901Z,66.70
2022-12-25T09:03:34.391Z,47.17
2022-12-25T09:04:46.361Z,46.42
2022-12-25T09:06:02.369Z,57.08
2022-12-25T09:07:13.872Z,50.25
2022-12-25T09:08:26.261Z,53.45
2022-12-25T09:09:37.715Z,56.33
2022-12-25T09:10:49.619Z,65.30
2022-12-25T09:12:02.312Z,66.07
2022-12-25T09:13:14.395Z,68.45
2022-12-25T09:14:25.874Z,57.25
2022-12-25T09:15:38.333Z,59.17
2022-12-25T09:16:50.227Z,54.90
2022-12-25T09:18:01.669Z,66.20
2022-12-25T09:19:13.170Z,75.78
2022-12-25T09:20:24.693Z,76.82
2022-12-25T09:21:36.927Z,68.00
2022-12-25T09:22:48.596Z,62.22
2022-12-25T09:24:00.102Z,64.80
2022-12-25T09:25:11.706Z,63.35
2022-12-25T09:26:23.175Z,57.47
2022-12-25T09:27:34.606Z,53.55
2022-12-25T09:28:51.367Z,52.17
2022-12-25T09:30:04.419Z,51.92
2022-12-25T09:31:16.341Z,56.10
2022-12-25T09:32:27.920Z,55.95
2022-12-25T09:33:39.468Z,54.70
2022-12-25T09:34:50.982Z,54.08
2022-12-25T09:36:04.424Z,50.58
2022-12-25T09:37:15.894Z,52.08
2022-12-25T09:38:27.617Z,47.63
2022-12-25T09:39:45.871Z,56.70
2022-12-25T09:41:16.128Z,53.65
2022-12-25T09:42:31.330Z,53.30
2022-12-25T09:43:46.433Z,48.90
2022-12-25T09:45:00.822Z,53.53
2022-12-25T09:46:15.600Z,54.38
2022-12-25T09:47:31.789Z,54.25
2022-12-25T09:48:47.533Z,46.55
2022-12-25T09:50:08.499Z,62.72
2022-12-25T09:51:20.202Z,53.22
2022-12-25T09:52:37.727Z,61.85
2022-12-25T09:53:53.654Z,71.85
2022-12-25T09:55:05.181Z,63.90
2022-12-25T09:56:25.664Z,64.25
2022-12-25T09:57:37.183Z,69.20
2022-12-25T09:58:48.609Z,72.82
2022-12-25T10:00:00.087Z,61.10
2022-12-25T10:01:20.987Z,54.83
2022-12-25T10:03:05.018Z,54.58
2022-12-25T10:04:16.556Z,62.40
2022-12-25T10:05:33.986Z,65.07
2022-12-25T10:06:45.451Z,61.08
2022-12-25T10:08:14.898Z,62.17
2022-12-25T10:09:29.079Z,51.38
2022-12-25T10:10:40.485Z,56.47
2022-12-25T10:11:51.953Z,53.65
2022-12-25T10:13:09.171Z,42.75
2022-12-25T10:14:20.628Z,40.60
2022-12-25T10:15:50.771Z,40.30
2022-12-25T10:17:25.355Z,33.83
2022-12-25T10:18:55.500Z,36.20
2022-12-25T10:20:19.798Z,46.35
2022-12-25T10:21:32.009Z,35.17
2022-12-25T10:22:52.763Z,45.60
2022-12-25T10:24:16.552Z,43.80
2022-12-25T10:25:32.829Z,45.65
2022-12-25T10:26:44.948Z,44.53
2022-12-25T10:28:04.315Z,41.92
2022-12-25T10:29:17.577Z,41.78
2022-12-25T10:30:29.251Z,37.88
2022-12-25T10:31:42.034Z,34.47
2022-12-25T10:32:54.815Z,38.65
2022-12-25T10:34:06.939Z,41.58
2022-12-25T10:35:20.062Z,42.75
2022-12-25T10:36:31.973Z,36.05
2022-12-25T10:37:44.598Z,43.88
2022-12-25T10:38:56.206Z,39.35
2022-12-25T10:40:37.285Z,45.78
2022-12-25T10:41:51.578Z,35.45
2022-12-25T10:43:13.955Z,45.15
2022-12-25T10:44:26.084Z,35.58
2022-12-25T10:45:44.343Z,44.83
2022-12-25T10:47:00.051Z,48.83
2022-12-25T10:48:15.986Z,34.63
2022-12-25T10:49:39.851Z,39.53
2022-12-25T10:50:51.595Z,37.55
2022-12-25T10:52:04.085Z,43.85
2022-12-25T10:53:20.463Z,44.45
2022-12-25T10:54:35.973Z,41.15
2022-12-25T10:55:54.318Z,46.70
2022-12-25T10:57:08.907Z,43.58
2022-12-25T10:58:21.721Z,45.28
2022-12-25T10:59:42.595Z,37.95
2022-12-25T11:00:56.908Z,26.75
2022-12-25T11:02:24.007Z,32.55
2022-12-25T11:03:39.893Z,29.98
2022-12-25T11:04:51.856Z,32.05
2022-12-25T11:06:04.236Z,34.38
2022-12-25T11:07:18.658Z,38.03
2022-12-25T11:08:31.483Z,30.65
2022-12-25T11:09:49.476Z,29.38
2022-12-25T11:11:06.595Z,27.85
2022-12-25T11:12:20.093Z,31.67
2022-12-25T11:13:33.365Z,40.10
2022-12-25T11:14:51.903Z,30.45
2022-12-25T11:16:05.862Z,34.55
2022-12-25T11:17:25.581Z,34.65
2022-12-25T11:18:47.929Z,38.13
2022-12-25T11:20:00.889Z,39.20
2022-12-25T11:21:17.647Z,38.17
2022-12-25T11:22:29.437Z,35.72
2022-12-25T11:23:44.090Z,40.38
2022-12-25T11:24:55.498Z,42.72
2022-12-25T11:26:08.388Z,36.78
2022-12-25T11:27:23.320Z,40.80
2022-12-25T11:28:37.057Z,35.10
2022-12-25T11:29:50.590Z,39.33
2022-12-25T11:31:22.314Z,40.05
2022-12-25T11:32:43.511Z,43.28
2022-12-25T11:33:57.314Z,36.80
2022-12-25T11:35:13.204Z,49.25
2022-12-25T11:36:28.632Z,38.45
2022-12-25T11:37:48.440Z,46.15
2022-12-25T11:39:16.492Z,41.08
2022-12-25T11:40:29.720Z,39.90
2022-12-25T11:41:41.548Z,37.25
2022-12-25T11:43:04.038Z,39.53
2022-12-25T11:44:27.826Z,43.63
2022-12-25T11:45:41.617Z,40.50
2022-12-25T11:46:55.154Z,41.15
2022-12-25T11:48:13.427Z,37.45
2022-12-25T11:49:25.644Z,37.72
2022-12-25T11:50:41.994Z,35.10
2022-12-25T11:51:55.745Z,29.98
2022-12-25T11:53:28.313Z,24.15
2022-12-25T11:54:52.303Z,26.48
2022-12-25T11:56:13.201Z,27.80
2022-12-25T11:57:27.860Z,28.45
2022-12-25T11:58:41.153Z,29.25
2022-12-25T11:59:56.145Z,48.75
2022-12-25T12:01:22.638Z,34.00
2022-12-25T12:02:38.496Z,34.95
2022-12-25T12:03:50.341Z,35.00
2022-12-25T12:05:22.021Z,37.42
2022-12-25T12:07:11.835Z,37.28
2022-12-25T12:08:23.278Z,39.50
2022-12-25T12:09:56.886Z,37.30
2022-12-25T12:11:34.673Z,33.30
2022-12-25T12:12:49.158Z,31.02
2022-12-25T12:14:07.205Z,28.10
2022-12-25T12:15:23.202Z,36.08
2022-12-25T12:16:34.848Z,34.00
2022-12-25T12:17:59.210Z,41.92
2022-12-25T12:19:24.638Z,23.80
2022-12-25T12:20:36.821Z,26.90
2022-12-25T12:21:48.550Z,29.95
2022-12-25T12:23:01.554Z,24.73
2022-12-25T12:24:17.149Z,24.65
2022-12-25T12:25:29.446Z,21.63
2022-12-25T12:26:42.617Z,26.40
2022-12-25T12:28:05.652Z,24.42
2022-12-25T12:29:23.455Z,23.92
2022-12-25T12:30:35.916Z,30.38
2022-12-25T12:31:48.970Z,21.77
2022-12-25T12:33:02.352Z,26.15
2022-12-25T12:34:31.163Z,22.70
2022-12-25T12:35:42.670Z,27.55
2022-12-25T12:36:59.192Z,24.23
2022-12-25T12:38:17.412Z,27.45
2022-12-25T12:39:35.271Z,26.77
2022-12-25T12:40:54.951Z,31.60
2022-12-25T12:42:15.775Z,26.63
2022-12-25T12:43:30.637Z,25.77
2022-12-25T12:44:42.735Z,28.63
2022-12-25T12:45:55.632Z,35.42
2022-12-25T12:47:27.251Z,30.90
2022-12-25T12:48:40.772Z,29.50
2022-12-25T12:49:58.443Z,34.10
2022-12-25T12:51:12.251Z,40.67
2022-12-25T12:52:32.698Z,33.78
2022-12-25T12:53:46.111Z,35.05
2022-12-25T12:54:58.500Z,37.78
2022-12-25T12:56:11.206Z,41.42
2022-12-25T12:57:25.736Z,46.03
2022-12-25T12:58:38.326Z,37.15
2022-12-25T12:59:50.840Z,38.00
2022-12-25T13:01:08.863Z,35.90
2022-12-25T13:02:26.713Z,39.40
2022-12-25T13:03:38.314Z,38.63
2022-12-25T13:04:49.863Z,43.83
2022-12-25T13:06:04.613Z,52.28
2022-12-25T13:07:32.432Z,46.38
2022-12-25T13:08:53.136Z,44.67
2022-12-25T13:10:13.971Z,42.55
2022-12-25T13:11:30.081Z,34.80
2022-12-25T13:12:41.674Z,40.40
2022-12-25T13:13:54.254Z,35.83
2022-12-25T13:15:12.103Z,31.80
2022-12-25T13:16:28.100Z,36.13
2022-12-25T13:17:42.897Z,37.58
2022-12-25T13:18:55.259Z,33.72
2022-12-25T13:20:07.445Z,36.65
2022-12-25T13:21:22.023Z,36.17
2022-12-25T13:22:34.837Z,33.42
2022-12-25T13:23:46.284Z,41.20
2022-12-25T13:24:59.458Z,36.83
2022-12-25T13:26:12.671Z,41.78
2022-12-25T13:27:25.633Z,42.33
2022-12-25T13:28:37.599Z,43.03
2022-12-25T13:29:49.125Z,39.22
2022-12-25T13:31:07.157Z,38.35
2022-12-25T13:32:29.922Z,43.15
2022-12-25T13:33:44.945Z,29.17
2022-12-25T13:34:57.203Z,25.92
2022-12-25T13:36:12.365Z,25.63
2022-12-25T13:37:25.468Z,31.63
2022-12-25T13:38:37.291Z,26.23
2022-12-25T13:39:49.110Z,22.30
2022-12-25T13:41:19.418Z,19.48
2022-12-25T13:42:36.546Z,19.60
2022-12-25T13:43:50.651Z,12.95
2022-12-25T13:45:14.509Z,16.20
2022-12-25T13:46:27.275Z,9.25
2022-12-25T13:47:41.174Z,13.93
2022-12-25T13:48:58.570Z,11.30
2022-12-25T13:50:20.140Z,10.85
2022-12-25T13:51:31.599Z,14.45
2022-12-25T13:52:43.169Z,8.00
2022-12-25T13:54:04.665Z,8.93
2022-12-25T13:55:42.614Z,8.57
2022-12-25T13:56:55.044Z,11.07
2022-12-25T13:58:07.718Z,9.25
2022-12-25T13:59:21.826Z,11.10
2022-12-25T14:00:36.511Z,11.63
2022-12-25T14:01:48.953Z,12.77
2022-12-25T14:03:00.810Z,17.73
2022-12-25T14:04:20.877Z,11.00
2022-12-25T14:05:41.627Z,10.88
2022-12-25T14:06:54.257Z,7.93
2022-12-25T14:08:16.612Z,15.43
2022-12-25T14:09:28.254Z,17.65
2022-12-25T14:10:41.730Z,51.05
2022-12-25T14:11:53.599Z,33.53
2022-12-25T14:13:07.335Z,26.90
2022-12-25T14:14:21.342Z,24.48
2022-12-25T14:15:33.720Z,15.13
2022-12-25T14:16:48.938Z,16.52
2022-12-25T14:18:00.662Z,17.25
2022-12-25T14:19:29.269Z,8.95
2022-12-25T14:20:41.966Z,40.15
2022-12-25T14:21:55.863Z,76.30
2022-12-25T14:23:07.864Z,54.13
2022-12-25T14:24:21.875Z,36.00
2022-12-25T14:25:46.285Z,33.95
2022-12-25T14:26:59.724Z,31.10
2022-12-25T14:28:32.954Z,42.30
2022-12-25T14:29:45.636Z,34.05
2022-12-25T14:30:57.164Z,28.02
2022-12-25T14:32:14.178Z,28.75
2022-12-25T14:33:25.988Z,32.63
2022-12-25T14:34:37.605Z,26.35
2022-12-25T14:35:49.632Z,34.10
2022-12-25T14:37:02.710Z,39.05
2022-12-25T14:38:20.646Z,35.00
2022-12-25T14:39:32.753Z,34.80
2022-12-25T14:40:45.787Z,15.23
2022-12-25T14:41:57.917Z,20.80
2022-12-25T14:43:26.348Z,20.63
2022-12-25T14:44:41.454Z,19.20
2022-12-25T14:45:57.742Z,14.73
2022-12-25T14:47:14.967Z,15.55
2022-12-25T14:48:27.492Z,18.52
2022-12-25T14:49:39.404Z,19.83
2022-12-25T14:51:07.883Z,21.13
2022-12-25T14:52:21.318Z,11.98
2022-12-25T14:53:46.257Z,9.63
2022-12-25T14:55:02.263Z,10.10
2022-12-25T14:56:19.559Z,7.85
2022-12-25T14:57:35.189Z,7.78
2022-12-25T14:58:51.436Z,9.90
2022-12-25T15:00:06.783Z,19.88
2022-12-25T15:01:24.224Z,24.48
2022-12-25T15:02:40.299Z,23.70
2022-12-25T15:03:52.345Z,24.23
2022-12-25T15:05:04.176Z,19.35
2022-12-25T15:06:20.271Z,33.13
2022-12-25T15:07:32.135Z,19.50
2022-12-25T15:08:54.735Z,14.75
2022-12-25T15:10:57.550Z,12.60
2022-12-25T15:11:43.523Z,15.18
2022-12-25T15:12:55.012Z,20.13
2022-12-25T15:14:06.617Z,36.03
2022-12-25T15:15:18.114Z,15.90
2022-12-25T15:16:31.156Z,20.08
2022-12-25T15:17:43.138Z,12.82
2022-12-25T15:18:55.182Z,14.70
2022-12-25T15:20:09.022Z,13.20
2022-12-25T15:21:20.572Z,9.65
2022-12-25T15:22:54.103Z,7.00
2022-12-25T15:24:05.002Z,5.65
2022-12-25T15:25:16.612Z,6.72
2022-12-25T15:26:29.869Z,15.52
2022-12-25T15:27:42.632Z,22.50
2022-12-25T15:28:54.230Z,12.05
2022-12-25T15:30:10.033Z,20.00
2022-12-25T15:31:27.105Z,28.08
2022-12-25T15:32:38.700Z,13.98
2022-12-25T15:33:50.489Z,12.45
2022-12-25T15:35:02.095Z,17.10
2022-12-25T15:36:14.008Z,21.98
2022-12-25T15:37:25.528Z,15.65
2022-12-25T15:38:39.047Z,19.83
2022-12-25T15:39:50.702Z,13.55
2022-12-25T15:41:02.582Z,13.50
2022-12-25T15:42:19.323Z,10.70
2022-12-25T15:43:46.681Z,10.73
2022-12-25T15:44:58.656Z,30.50
2022-12-25T15:46:10.565Z,45.05
2022-12-25T15:47:23.160Z,49.55
2022-12-25T15:48:34.722Z,71.53
2022-12-25T15:49:46.429Z,66.38
2022-12-25T15:50:58.023Z,45.17
2022-12-25T15:52:14.375Z,55.03
2022-12-25T15:53:27.066Z,59.25
2022-12-25T15:54:38.916Z,111.35
2022-12-25T15:55:50.892Z,134.73
2022-12-25T15:57:04.558Z,123.68
2022-12-25T15:58:18.037Z,180.57
2022-12-25T15:59:30.275Z,166.30
2022-12-25T16:00:42.351Z,63.15
2022-12-25T16:01:55.634Z,75.80
2022-12-25T16:03:07.669Z,86.47
2022-12-25T16:04:19.542Z,50.60
2022-12-25T16:05:31.408Z,57.60
2022-12-25T16:06:42.958Z,48.53
2022-12-25T16:07:55.171Z,67.80
2022-12-25T16:09:07.305Z,55.83
2022-12-25T16:10:20.081Z,46.63
2022-12-25T16:11:31.763Z,46.88
2022-12-25T16:12:44.335Z,42.70
2022-12-25T16:13:56.322Z,46.22
2022-12-25T16:15:09.485Z,40.95
2022-12-25T16:16:22.966Z,33.67
2022-12-25T16:17:34.866Z,39.05